Time;durP1;ratioP1;P1;durP2;ratioP2;P2;SDS_P1;SDS_P2;PMS_P1;PMS_P2;Temp;Humidity;BMP_temperature;BMP_pressure;BME280_temperature;BME280_humidity;BME280_pressure;Samples;Min_cycle;Max_cycle;Signal;HPM_P1;HPM_P2
2021/07/14 00:01:55;;;;;;;3.27;2.53;;;19.00;96.00;;;;;;5028267;28;20426;-85
2021/07/14 00:04:20;;;;;;;5.33;2.60;;;19.00;96.00;;;;;;5028036;28;20441;-85
2021/07/14 00:06:46;;;;;;;3.93;2.40;;;18.90;95.90;;;;;;5027686;28;20183;-85
2021/07/14 00:09:12;;;;;;;2.37;2.17;;;18.90;95.90;;;;;;5033409;28;20159;-85
2021/07/14 00:11:44;;;;;;;3.50;2.90;;;18.90;96.00;;;;;;5036871;28;20183;-84
2021/07/14 00:17:18;;;;;;;4.50;2.63;;;18.80;96.00;;;;;;5028893;28;20485;-86
2021/07/14 00:22:31;;;;;;;5.27;2.47;;;18.90;96.10;;;;;;5027253;28;20468;-85
2021/07/14 00:24:58;;;;;;;4.13;2.43;;;18.90;95.90;;;;;;5028138;28;20442;-85
2021/07/14 00:27:24;;;;;;;3.97;1.87;;;18.90;95.90;;;;;;5028120;28;20414;-85
2021/07/14 00:29:55;;;;;;;3.33;2.40;;;18.80;95.80;;;;;;5028654;28;20398;-85
2021/07/14 00:32:22;;;;;;;6.20;2.10;;;18.90;96.00;;;;;;5029383;28;20453;-85
2021/07/14 00:34:49;;;;;;;5.10;2.60;;;18.90;96.10;;;;;;5011790;28;20441;-85
2021/07/14 00:37:15;;;;;;;3.37;2.60;;;18.90;96.10;;;;;;5035626;28;20470;-84
2021/07/14 00:39:42;;;;;;;3.73;1.83;;;18.90;95.90;;;;;;5017080;28;20923;-84
2021/07/14 00:42:09;;;;;;;3.00;1.77;;;18.90;95.70;;;;;;5028646;28;20202;-85
2021/07/14 00:44:34;;;;;;;2.47;1.57;;;18.90;95.60;;;;;;5029809;28;20442;-84
2021/07/14 00:47:01;;;;;;;2.37;2.00;;;18.90;95.60;;;;;;5028515;28;20443;-86
2021/07/14 00:49:29;;;;;;;1.90;1.70;;;18.90;95.30;;;;;;5028763;28;20532;-85
2021/07/14 00:51:55;;;;;;;2.13;1.93;;;18.90;95.30;;;;;;5028273;28;20433;-86
2021/07/14 00:54:21;;;;;;;3.60;2.30;;;18.90;95.40;;;;;;5028924;28;20900;-85
2021/07/14 00:56:47;;;;;;;4.07;2.03;;;18.90;95.30;;;;;;5030121;28;20176;-85
2021/07/14 00:59:13;;;;;;;2.80;2.20;;;18.80;95.40;;;;;;5033029;28;20491;-86
2021/07/14 01:01:39;;;;;;;1.87;1.67;;;18.80;95.40;;;;;;5032317;28;20816;-85
2021/07/14 01:04:17;;;;;;;2.37;1.97;;;18.80;95.40;;;;;;5032508;28;20333;-86
2021/07/14 01:06:54;;;;;;;11.30;2.03;;;18.80;95.30;;;;;;5031310;28;20191;-85
2021/07/14 01:09:52;;;;;;;3.60;1.67;;;18.80;95.30;;;;;;5031103;28;20449;-86
2021/07/14 01:12:31;;;;;;;1.87;1.17;;;18.80;95.30;;;;;;5015174;28;20441;-85
2021/07/14 01:15:08;;;;;;;4.53;1.23;;;18.80;95.00;;;;;;5032854;28;20447;-86
2021/07/14 01:17:37;;;;;;;1.90;1.70;;;18.70;95.10;;;;;;5031296;28;20914;-85
2021/07/14 01:20:19;;;;;;;2.83;1.30;;;18.70;95.00;;;;;;5030363;28;20429;-86
2021/07/14 01:22:51;;;;;;;6.70;1.50;;;18.70;95.10;;;;;;5030105;28;20440;-85
2021/07/14 01:25:49;;;;;;;3.83;1.10;;;18.70;95.10;;;;;;5031853;28;20521;-86
2021/07/14 01:28:17;;;;;;;1.30;1.10;;;18.70;95.10;;;;;;5030291;28;20417;-86
2021/07/14 01:30:44;;;;;;;1.93;1.10;;;18.70;95.10;;;;;;5032228;28;20460;-86
2021/07/14 01:33:11;;;;;;;1.67;1.20;;;18.70;95.10;;;;;;5030930;28;20489;-86
2021/07/14 01:35:44;;;;;;;1.23;0.80;;;18.70;95.10;;;;;;5032533;28;20460;-85
2021/07/14 01:38:12;;;;;;;2.40;1.23;;;18.70;95.20;;;;;;5031607;28;20498;-86
2021/07/14 01:40:39;;;;;;;2.13;1.00;;;18.70;95.10;;;;;;5029807;28;20434;-85
2021/07/14 01:43:06;;;;;;;2.50;1.10;;;18.70;95.10;;;;;;5029286;28;20410;-86
2021/07/14 01:45:34;;;;;;;3.00;1.63;;;18.70;94.90;;;;;;5028136;28;20462;-86
2021/07/14 01:48:02;;;;;;;1.80;1.00;;;18.60;95.00;;;;;;5027149;28;20507;-86
2021/07/14 01:50:30;;;;;;;4.47;0.83;;;18.60;94.90;;;;;;5029881;28;20406;-86
2021/07/14 01:52:57;;;;;;;1.93;1.00;;;18.60;94.90;;;;;;5029780;28;20409;-87
2021/07/14 01:55:25;;;;;;;2.37;0.87;;;18.50;94.90;;;;;;5030012;28;20478;-86
2021/07/14 01:57:55;;;;;;;2.70;1.00;;;18.50;95.00;;;;;;5030183;28;20415;-85
2021/07/14 02:00:21;;;;;;;3.10;1.00;;;18.60;95.20;;;;;;5032325;28;20454;-84
2021/07/14 02:05:38;;;;;;;2.60;1.00;;;18.50;95.10;;;;;;5020134;28;20476;-85
2021/07/14 02:08:05;;;;;;;3.77;1.13;;;18.50;95.10;;;;;;5034677;28;20522;-85
2021/07/14 02:10:32;;;;;;;3.00;1.33;;;18.50;95.10;;;;;;5038012;28;20462;-84
2021/07/14 02:12:59;;;;;;;1.20;1.07;;;18.50;95.40;;;;;;5020147;28;20445;-85
2021/07/14 02:15:27;;;;;;;3.20;1.07;;;18.50;95.10;;;;;;5032179;28;20421;-85
2021/07/14 02:18:11;;;;;;;3.00;1.33;;;18.50;95.00;;;;;;5031720;28;20486;-85
2021/07/14 02:20:39;;;;;;;1.23;1.07;;;18.40;95.10;;;;;;5015054;28;20476;-84
2021/07/14 02:23:06;;;;;;;2.07;1.00;;;18.40;95.10;;;;;;5032910;28;20410;-85
2021/07/14 02:25:32;;;;;;;1.20;0.97;;;18.40;95.10;;;;;;5030898;28;20493;-85
2021/07/14 02:27:58;;;;;;;1.13;0.87;;;18.40;95.20;;;;;;5030282;28;20395;-84
2021/07/14 02:30:24;;;;;;;3.97;1.07;;;18.40;95.20;;;;;;5027605;28;20417;-85
2021/07/14 02:32:56;;;;;;;2.37;1.10;;;18.30;95.20;;;;;;5031151;28;20498;-85
2021/07/14 02:35:24;;;;;;;2.83;1.10;;;18.30;95.20;;;;;;5029856;28;20490;-86
2021/07/14 02:37:52;;;;;;;1.40;1.27;;;18.30;95.10;;;;;;5011098;28;20489;-84
2021/07/14 02:40:31;;;;;;;1.80;1.27;;;18.30;95.30;;;;;;5012619;28;20449;-85
2021/07/14 02:43:00;;;;;;;4.30;1.30;;;18.30;95.40;;;;;;5034705;28;20421;-85
2021/07/14 02:45:28;;;;;;;1.93;0.97;;;18.30;95.20;;;;;;5030583;28;20445;-85
2021/07/14 02:47:56;;;;;;;1.50;1.10;;;18.30;95.20;;;;;;5030421;28;20451;-85
2021/07/14 02:50:27;;;;;;;1.90;1.20;;;18.30;95.10;;;;;;5030056;28;20425;-85
2021/07/14 02:53:00;;;;;;;3.33;1.37;;;18.30;95.00;;;;;;5029994;28;20425;-85
2021/07/14 02:55:29;;;;;;;1.23;0.97;;;18.20;95.10;;;;;;5030601;28;20405;-85
2021/07/14 02:57:57;;;;;;;1.20;1.00;;;18.20;95.10;;;;;;5029316;28;20437;-87
2021/07/14 03:00:26;;;;;;;3.63;1.33;;;18.20;95.10;;;;;;5026794;28;20414;-86
2021/07/14 03:02:52;;;;;;;3.70;1.20;;;18.20;95.10;;;;;;5027452;28;20424;-85
2021/07/14 03:05:19;;;;;;;3.23;1.50;;;18.20;95.00;;;;;;5028549;28;20450;-84
2021/07/14 03:07:47;;;;;;;3.83;1.57;;;18.30;95.10;;;;;;5028087;28;20407;-86
2021/07/14 03:10:18;;;;;;;2.40;1.47;;;18.30;95.00;;;;;;5028966;28;20932;-86
2021/07/14 03:12:46;;;;;;;2.40;1.37;;;18.30;95.00;;;;;;5028141;28;20421;-86
2021/07/14 03:15:12;;;;;;;4.10;1.20;;;18.30;94.80;;;;;;5027822;28;20487;-87
2021/07/14 03:17:40;;;;;;;1.63;1.47;;;18.30;94.70;;;;;;5029648;28;20406;-84
2021/07/14 03:20:10;;;;;;;1.40;1.20;;;18.30;94.80;;;;;;5028927;28;20417;-84
2021/07/14 03:22:38;;;;;;;4.87;1.27;;;18.40;94.90;;;;;;5012402;28;20511;-85
2021/07/14 03:25:06;;;;;;;5.77;1.90;;;18.40;94.80;;;;;;5012971;28;20521;-87
2021/07/14 03:27:32;;;;;;;1.93;1.30;;;18.30;94.80;;;;;;5029236;28;20410;-86
2021/07/14 03:29:58;;;;;;;4.03;1.40;;;18.30;94.90;;;;;;5028391;28;20934;-86
2021/07/14 03:32:24;;;;;;;4.73;1.50;;;18.30;95.00;;;;;;5026883;28;20187;-87
2021/07/14 03:34:52;;;;;;;3.83;2.40;;;18.30;94.90;;;;;;5026643;28;20458;-86
2021/07/14 03:37:18;;;;;;;4.13;1.70;;;18.30;95.00;;;;;;5025970;28;20421;-86
2021/07/14 03:39:45;;;;;;;15.70;3.80;;;18.30;95.00;;;;;;5028951;28;20437;-86
2021/07/14 03:42:15;;;;;;;2.40;1.73;;;18.40;95.00;;;;;;5041643;23;20585;-87
2021/07/14 03:44:42;;;;;;;3.50;1.37;;;18.40;95.50;;;;;;4998242;28;20410;-87
2021/07/14 03:47:09;;;;;;;2.73;2.30;;;18.40;95.10;;;;;;4998547;28;20453;-86
2021/07/14 03:49:37;;;;;;;5.17;2.60;;;18.40;95.10;;;;;;5014946;28;20547;-87
2021/07/14 03:52:03;;;;;;;6.23;2.23;;;18.40;95.10;;;;;;5001042;28;20444;-86
2021/07/14 03:54:31;;;;;;;2.10;1.90;;;18.40;95.10;;;;;;4999905;28;20415;-87
2021/07/14 03:56:57;;;;;;;4.17;1.97;;;18.40;95.00;;;;;;5015979;28;20472;-87
2021/07/14 03:59:24;;;;;;;4.77;2.60;;;18.40;94.90;;;;;;5001246;28;20939;-87
2021/07/14 04:01:52;;;;;;;4.70;2.20;;;18.40;94.80;;;;;;5001143;28;20527;-86
2021/07/14 04:04:18;;;;;;;3.30;2.30;;;18.40;94.80;;;;;;5027652;28;20425;-86
2021/07/14 04:06:49;;;;;;;2.00;1.53;;;18.40;94.80;;;;;;5017454;28;20961;-87
2021/07/14 04:09:26;;;;;;;2.20;1.90;;;18.40;94.60;;;;;;5018500;28;20428;-86
2021/07/14 04:11:55;;;;;;;3.60;1.53;;;18.40;94.40;;;;;;5001268;28;20436;-86
2021/07/14 04:14:21;;;;;;;2.13;1.53;;;18.40;94.40;;;;;;5006002;28;20441;-87
2021/07/14 04:16:47;;;;;;;2.23;1.60;;;18.40;94.40;;;;;;5018723;28;20887;-87
2021/07/14 04:19:13;;;;;;;2.33;1.80;;;18.30;94.20;;;;;;5014683;28;20428;-87
2021/07/14 04:21:39;;;;;;;2.03;1.80;;;18.30;94.20;;;;;;5012163;28;20442;-87
2021/07/14 04:24:06;;;;;;;2.27;1.53;;;18.30;94.20;;;;;;5001007;28;20489;-87
2021/07/14 04:26:32;;;;;;;5.13;1.67;;;18.30;94.20;;;;;;4997037;28;20446;-87
2021/07/14 04:28:58;;;;;;;5.63;1.90;;;18.20;94.30;;;;;;4996077;28;20438;-87
2021/07/14 04:31:24;;;;;;;6.30;2.03;;;18.30;94.50;;;;;;5012106;28;20445;-87
2021/07/14 04:33:50;;;;;;;5.70;2.53;;;18.30;94.60;;;;;;4996868;28;20250;-87
2021/07/14 04:36:17;;;;;;;5.47;3.10;;;18.30;94.70;;;;;;4997373;28;20167;-88
2021/07/14 04:38:42;;;;;;;3.07;1.80;;;18.30;94.60;;;;;;4997353;28;21001;-87
2021/07/14 04:41:16;;;;;;;7.80;2.40;;;18.30;94.80;;;;;;5016583;23;20616;-87
2021/07/14 04:44:29;;;;;;;2.90;2.10;;;18.30;94.80;;;;;;5035587;28;20169;-87
2021/07/14 04:47:29;;;;;;;;;;;;;;;;;;;;;
2021/07/14 04:50:40;;;;;;;;;;;;;;;;;;;;;
2021/07/14 04:53:10;;;;;;;3.70;2.37;;;18.40;95.70;;;;;;5042022;23;20485;-85
2021/07/14 04:55:38;;;;;;;3.93;2.57;;;18.30;95.30;;;;;;5027399;28;20709;-87
2021/07/14 04:58:03;;;;;;;5.50;2.03;;;18.40;95.40;;;;;;5024699;28;20168;-85
2021/07/14 05:00:29;;;;;;;3.07;2.03;;;18.40;95.40;;;;;;5021673;28;20432;-86
2021/07/14 05:02:56;;;;;;;5.20;2.07;;;18.40;95.50;;;;;;5022758;28;20191;-85
2021/07/14 05:05:22;;;;;;;8.60;3.00;;;18.40;95.50;;;;;;5025854;28;20203;-85
2021/07/14 05:07:49;;;;;;;5.43;2.67;;;18.40;95.60;;;;;;5026659;28;20414;-85
2021/07/14 05:10:16;;;;;;;4.80;3.07;;;18.40;95.80;;;;;;5004308;28;20682;-85
2021/07/14 05:12:42;;;;;;;4.90;1.93;;;18.40;95.90;;;;;;5022105;28;20417;-85
2021/07/14 05:15:09;;;;;;;3.43;2.23;;;18.40;96.10;;;;;;5023759;28;20440;-85
2021/07/14 05:17:35;;;;;;;3.10;2.47;;;18.50;96.10;;;;;;5015032;28;20258;-84
2021/07/14 05:20:00;;;;;;;5.03;2.63;;;18.40;96.00;;;;;;4999901;28;20429;-84
2021/07/14 05:22:26;;;;;;;4.33;2.60;;;18.40;96.10;;;;;;5003109;28;20204;-85
2021/07/14 05:24:52;;;;;;;4.57;2.87;;;18.40;96.10;;;;;;5001587;28;20199;-85
2021/07/14 05:27:18;;;;;;;5.63;2.80;;;18.40;96.20;;;;;;4993048;28;20470;-85
2021/07/14 05:29:43;;;;;;;3.40;2.70;;;18.50;96.30;;;;;;5000085;28;20178;-85
2021/07/14 05:32:09;;;;;;;4.90;3.07;;;18.50;96.20;;;;;;4981431;28;20425;-85
2021/07/14 05:34:35;;;;;;;5.00;2.80;;;18.50;96.30;;;;;;5004311;28;20181;-85
2021/07/14 05:37:01;;;;;;;6.33;3.40;;;18.40;96.30;;;;;;5002536;28;20788;-85
2021/07/14 05:39:26;;;;;;;7.27;3.50;;;18.50;96.40;;;;;;4988545;28;20169;-84
2021/07/14 05:41:52;;;;;;;8.77;3.37;;;18.50;96.40;;;;;;5018685;28;20167;-85
2021/07/14 05:44:18;;;;;;;4.50;3.23;;;18.50;96.40;;;;;;5015083;28;20190;-85
2021/07/14 05:46:44;;;;;;;4.00;3.30;;;18.50;96.50;;;;;;4994271;28;20202;-85
2021/07/14 05:49:10;;;;;;;5.40;3.30;;;18.50;96.50;;;;;;5005608;28;20232;-85
2021/07/14 05:51:36;;;;;;;6.10;3.53;;;18.50;96.60;;;;;;5005705;28;20506;-84
2021/07/14 05:54:02;;;;;;;7.93;3.60;;;18.50;96.70;;;;;;5016765;28;20811;-86
2021/07/14 05:56:27;;;;;;;4.83;3.90;;;18.50;96.70;;;;;;5003585;28;20553;-84
2021/07/14 05:58:54;;;;;;;8.93;5.00;;;18.50;96.80;;;;;;5003756;28;20428;-85
2021/07/14 06:01:20;;;;;;;10.00;3.80;;;18.50;96.80;;;;;;5002657;28;20176;-85
2021/07/14 06:03:47;;;;;;;4.97;3.27;;;18.50;97.00;;;;;;4997903;28;20647;-82
2021/07/14 06:06:14;;;;;;;5.70;3.00;;;18.50;97.00;;;;;;4995721;28;20488;-83
2021/07/14 06:08:40;;;;;;;5.43;3.90;;;18.50;97.00;;;;;;4983464;28;20947;-83
2021/07/14 06:11:06;;;;;;;9.20;3.50;;;18.40;97.20;;;;;;4983124;28;20423;-84
2021/07/14 06:13:33;;;;;;;5.50;4.03;;;18.40;97.10;;;;;;4987415;28;20191;-87
2021/07/14 06:15:58;;;;;;;5.50;4.03;;;18.30;97.40;;;;;;4969558;28;20195;-85
2021/07/14 06:18:24;;;;;;;5.10;3.40;;;18.30;97.50;;;;;;4986661;28;20528;-85
2021/07/14 06:20:50;;;;;;;5.57;3.37;;;18.30;97.70;;;;;;4992374;28;20168;-87
2021/07/14 06:23:16;;;;;;;4.70;2.93;;;18.30;97.80;;;;;;4995812;28;20191;-85
2021/07/14 06:25:42;;;;;;;8.23;4.60;;;18.30;98.00;;;;;;5014127;28;20468;-84
2021/07/14 06:28:12;;;;;;;4.07;3.53;;;18.30;98.40;;;;;;5000885;28;20179;-86
2021/07/14 06:30:46;;;;;;;5.00;3.60;;;18.30;98.20;;;;;;5013153;28;20411;-86
2021/07/14 06:33:12;;;;;;;4.03;3.10;;;18.30;98.20;;;;;;5001137;28;20908;-85
2021/07/14 06:35:38;;;;;;;5.20;3.40;;;18.30;98.40;;;;;;5002905;28;20502;-85
2021/07/14 06:38:04;;;;;;;8.60;4.30;;;18.30;98.50;;;;;;5001968;28;20455;-84
2021/07/14 06:40:31;;;;;;;6.83;4.00;;;18.30;98.60;;;;;;5001148;28;20173;-85
2021/07/14 06:42:57;;;;;;;12.43;4.07;;;18.20;98.40;;;;;;4999186;28;20204;-83
2021/07/14 06:45:24;;;;;;;5.00;4.07;;;18.20;98.60;;;;;;4997488;28;20450;-86
2021/07/14 06:47:50;;;;;;;12.03;6.90;;;18.20;99.00;;;;;;4992852;28;20426;-86
2021/07/14 06:50:16;;;;;;;6.43;5.07;;;18.20;99.20;;;;;;4991641;28;20774;-84
2021/07/14 06:52:43;;;;;;;9.53;3.90;;;18.20;99.30;;;;;;5001287;28;20434;-85
2021/07/14 06:55:10;;;;;;;8.30;4.90;;;18.20;99.50;;;;;;5000924;28;20202;-83
2021/07/14 06:57:37;;;;;;;4.40;3.43;;;18.20;99.60;;;;;;5001386;28;20418;-85
2021/07/14 07:00:06;;;;;;;4.60;3.43;;;18.20;99.60;;;;;;4987121;28;20420;-84
2021/07/14 07:02:32;;;;;;;6.43;4.47;;;18.20;99.80;;;;;;4982472;28;20400;-84
2021/07/14 07:04:59;;;;;;;5.40;3.93;;;18.20;99.90;;;;;;4977033;28;20506;-84
2021/07/14 07:07:24;;;;;;;7.20;4.30;;;18.20;99.90;;;;;;4995474;28;20173;-85
2021/07/14 07:09:52;;;;;;;8.10;4.23;;;18.20;99.90;;;;;;4979981;28;20467;-84
2021/07/14 07:12:20;;;;;;;5.40;3.73;;;18.20;99.90;;;;;;4979371;28;20629;-86
2021/07/14 07:14:46;;;;;;;5.40;3.63;;;18.20;99.80;;;;;;4979969;28;20504;-82
2021/07/14 07:17:11;;;;;;;4.70;3.53;;;18.20;99.90;;;;;;4998743;28;20442;-84
2021/07/14 07:19:37;;;;;;;5.40;3.20;;;18.10;99.70;;;;;;4981228;28;20478;-84
2021/07/14 07:22:04;;;;;;;5.73;2.97;;;18.10;99.80;;;;;;4980631;28;20195;-84
2021/07/14 07:24:30;;;;;;;4.60;2.80;;;18.00;99.80;;;;;;4978455;28;20661;-84
2021/07/14 07:26:56;;;;;;;5.00;2.93;;;18.00;99.90;;;;;;4986190;28;20455;-85
2021/07/14 07:29:21;;;;;;;4.23;2.03;;;18.00;99.90;;;;;;4999043;28;20413;-84
2021/07/14 07:31:48;;;;;;;3.80;2.30;;;17.90;99.80;;;;;;4993119;28;20700;-84
2021/07/14 07:34:15;;;;;;;5.10;2.63;;;17.90;99.90;;;;;;4998617;28;20188;-84
2021/07/14 07:36:41;;;;;;;3.00;2.67;;;17.90;99.90;;;;;;5001794;28;20505;-86
2021/07/14 07:39:08;;;;;;;3.57;2.03;;;17.80;99.90;;;;;;5000730;28;20462;-83
2021/07/14 07:41:34;;;;;;;3.50;1.90;;;17.80;99.90;;;;;;4981918;28;20180;-84
2021/07/14 07:44:00;;;;;;;2.43;1.60;;;17.80;99.90;;;;;;5000329;28;20427;-84
2021/07/14 07:46:26;;;;;;;3.70;1.90;;;17.80;99.90;;;;;;5003363;28;20758;-86
2021/07/14 07:48:52;;;;;;;9.80;2.10;;;17.80;99.90;;;;;;5002457;28;20449;-86
2021/07/14 07:51:18;;;;;;;3.67;2.13;;;17.80;99.90;;;;;;5001955;28;20406;-84
2021/07/14 07:53:44;;;;;;;6.87;2.20;;;17.80;99.90;;;;;;4998655;28;20257;-86
2021/07/14 07:56:10;;;;;;;3.23;1.57;;;17.80;99.90;;;;;;5000878;28;20199;-84
2021/07/14 07:58:36;;;;;;;2.30;1.30;;;17.80;99.90;;;;;;4988435;28;20172;-84
2021/07/14 08:01:03;;;;;;;3.30;1.33;;;17.80;99.90;;;;;;4966490;28;20483;-86
2021/07/14 08:03:31;;;;;;;3.50;1.90;;;17.80;99.90;;;;;;4982347;28;20440;-86
2021/07/14 08:05:57;;;;;;;2.13;1.17;;;17.80;99.90;;;;;;4989227;28;20471;-85
2021/07/14 08:08:23;;;;;;;1.90;1.40;;;17.80;99.90;;;;;;4987670;28;20430;-84
2021/07/14 08:10:49;;;;;;;1.50;1.10;;;17.70;99.90;;;;;;4985021;28;20156;-86
2021/07/14 08:13:15;;;;;;;1.60;1.20;;;17.70;99.90;;;;;;4986360;28;20216;-85
2021/07/14 08:15:43;;;;;;;1.67;1.30;;;17.80;99.90;;;;;;4984721;28;20157;-86
2021/07/14 08:18:08;;;;;;;2.40;1.33;;;17.80;99.90;;;;;;4988074;28;20422;-86
2021/07/14 08:20:34;;;;;;;2.30;1.90;;;17.80;99.90;;;;;;4987812;28;20419;-85
2021/07/14 08:23:00;;;;;;;1.97;1.37;;;17.80;99.90;;;;;;5004759;28;20207;-84
2021/07/14 08:25:25;;;;;;;2.23;1.57;;;17.90;99.90;;;;;;5009274;28;20226;-84
2021/07/14 08:27:51;;;;;;;2.00;1.10;;;17.90;99.90;;;;;;5008920;28;20172;-85
2021/07/14 08:30:17;;;;;;;2.10;1.57;;;17.90;99.90;;;;;;5008706;28;20159;-84
2021/07/14 08:32:43;;;;;;;2.33;1.53;;;17.90;99.90;;;;;;5010631;28;20426;-84
2021/07/14 08:35:11;;;;;;;3.20;1.23;;;17.90;99.90;;;;;;5011985;28;20470;-84
2021/07/14 08:37:37;;;;;;;2.17;1.53;;;17.90;99.90;;;;;;5007907;28;20183;-85
2021/07/14 08:40:05;;;;;;;2.43;1.17;;;18.00;99.90;;;;;;5002518;28;20426;-85
2021/07/14 08:42:34;;;;;;;4.17;1.70;;;17.90;99.90;;;;;;5003058;28;20182;-85
2021/07/14 08:45:06;;;;;;;2.57;1.03;;;18.00;99.90;;;;;;4985170;28;20466;-85
2021/07/14 08:47:32;;;;;;;2.53;1.83;;;18.00;99.90;;;;;;5022167;28;20406;-85
2021/07/14 08:49:59;;;;;;;2.80;1.40;;;18.10;99.90;;;;;;5010190;28;20469;-86
2021/07/14 08:52:25;;;;;;;2.80;1.70;;;18.10;99.90;;;;;;4997189;28;20655;-84
2021/07/14 08:54:51;;;;;;;2.90;1.90;;;18.10;99.90;;;;;;5000262;28;20444;-84
2021/07/14 08:57:17;;;;;;;2.33;1.90;;;18.20;99.90;;;;;;5003532;28;20171;-85
2021/07/14 08:59:44;;;;;;;2.80;2.00;;;18.20;99.90;;;;;;5009736;28;20538;-85
2021/07/14 09:02:10;;;;;;;6.13;1.83;;;18.30;99.90;;;;;;4999603;28;20511;-84
2021/07/14 09:04:37;;;;;;;2.07;1.87;;;18.30;99.90;;;;;;5001766;28;20460;-85
2021/07/14 09:07:04;;;;;;;2.50;1.50;;;18.40;99.90;;;;;;4991320;28;20431;-85
2021/07/14 09:09:30;;;;;;;2.60;1.70;;;18.40;99.90;;;;;;4985821;28;20421;-85
2021/07/14 09:11:58;;;;;;;2.60;1.30;;;18.40;99.90;;;;;;4986986;28;20411;-85
2021/07/14 09:14:32;;;;;;;2.57;1.60;;;18.40;99.80;;;;;;4984826;28;20523;-85
2021/07/14 09:17:19;;;;;;;2.50;2.10;;;18.40;99.80;;;;;;4986853;28;20910;-87
2021/07/14 09:19:45;;;;;;;5.20;1.80;;;18.40;99.80;;;;;;5004238;28;20447;-85
2021/07/14 09:22:25;;;;;;;3.00;1.50;;;18.40;99.80;;;;;;4989049;28;20423;-87
2021/07/14 09:24:57;;;;;;;2.33;1.47;;;18.40;99.80;;;;;;5002540;28;20421;-84
2021/07/14 09:27:36;;;;;;;4.03;1.50;;;18.40;99.80;;;;;;5010824;28;20419;-86
2021/07/14 09:30:07;;;;;;;35.87;21.50;;;18.40;99.80;;;;;;5003579;28;20419;-86
2021/07/14 09:32:52;;;;;;;72.00;39.90;;;18.40;99.70;;;;;;4989671;28;20841;-86
2021/07/14 09:35:33;;;;;;;2.83;2.30;;;18.40;99.90;;;;;;4986358;28;20862;-85
2021/07/14 09:38:11;;;;;;;2.33;1.90;;;18.40;99.40;;;;;;4999089;28;20796;-85
2021/07/14 09:40:38;;;;;;;4.17;2.77;;;18.40;99.60;;;;;;5008210;28;20422;-86
2021/07/14 09:43:16;;;;;;;5.73;3.60;;;18.40;99.80;;;;;;5006502;28;20430;-86
2021/07/14 09:46:07;;;;;;;6.00;3.20;;;18.40;99.90;;;;;;4993621;28;20498;-85
2021/07/14 09:48:37;;;;;;;3.17;2.13;;;18.40;99.90;;;;;;4999802;28;20415;-86
2021/07/14 09:51:21;;;;;;;2.27;1.57;;;18.40;99.90;;;;;;4990143;28;20512;-86
2021/07/14 09:53:49;;;;;;;3.23;2.30;;;18.40;99.90;;;;;;4986583;28;20578;-86
2021/07/14 09:56:26;;;;;;;2.73;2.10;;;18.40;99.90;;;;;;4997815;28;20926;-86
2021/07/14 09:59:09;;;;;;;3.30;2.33;;;18.40;99.90;;;;;;4999723;28;20728;-84
2021/07/14 10:01:54;;;;;;;3.13;1.93;;;18.40;99.90;;;;;;4966095;28;20454;-85
2021/07/14 10:04:23;;;;;;;3.63;2.40;;;18.50;99.90;;;;;;4986067;28;20454;-84
2021/07/14 10:06:49;;;;;;;5.33;3.23;;;18.50;99.90;;;;;;4977529;28;20705;-85
2021/07/14 10:09:23;;;;;;;4.93;3.20;;;18.60;99.90;;;;;;5008068;28;20416;-85
2021/07/14 10:11:49;;;;;;;3.50;2.60;;;18.60;99.90;;;;;;5008056;28;20279;-85
2021/07/14 10:14:17;;;;;;;4.07;3.37;;;18.70;99.90;;;;;;5006768;28;20441;-85
2021/07/14 10:16:43;;;;;;;5.30;3.87;;;18.70;99.90;;;;;;5007518;28;20179;-85
2021/07/14 10:19:19;;;;;;;7.37;3.60;;;18.70;99.90;;;;;;5002704;28;20475;-84
2021/07/14 10:21:47;;;;;;;5.07;3.87;;;18.60;99.90;;;;;;4996611;28;20232;-84
2021/07/14 10:24:15;;;;;;;4.80;3.50;;;18.60;99.90;;;;;;4987392;28;20490;-84
2021/07/14 10:26:47;;;;;;;3.57;2.80;;;18.70;99.90;;;;;;4986952;28;20452;-86
2021/07/14 10:29:19;;;;;;;8.73;5.80;;;18.70;99.90;;;;;;4992539;28;20951;-86
2021/07/14 10:31:50;;;;;;;3.20;2.50;;;18.70;99.90;;;;;;5004440;28;20432;-87
2021/07/14 10:34:21;;;;;;;4.50;3.00;;;18.70;99.90;;;;;;5005943;28;20442;-84
2021/07/14 10:36:51;;;;;;;4.03;2.50;;;18.70;99.90;;;;;;4986826;28;20429;-86
2021/07/14 10:39:18;;;;;;;4.83;3.23;;;18.70;99.90;;;;;;4997478;28;20466;-86
2021/07/14 10:41:44;;;;;;;6.00;2.83;;;18.70;99.90;;;;;;5013735;28;20516;-84
2021/07/14 10:44:14;;;;;;;76.87;55.73;;;18.70;99.90;;;;;;5009398;28;20467;-85
2021/07/14 10:46:40;;;;;;;4.57;3.00;;;18.70;99.90;;;;;;5007131;28;20498;-86
2021/07/14 10:49:08;;;;;;;3.67;3.03;;;18.70;99.90;;;;;;5007326;28;20427;-86
2021/07/14 10:51:35;;;;;;;4.63;2.47;;;18.70;99.90;;;;;;5001753;28;20223;-87
2021/07/14 10:54:04;;;;;;;2.33;1.90;;;18.70;99.90;;;;;;5026427;23;20485;-77
2021/07/14 10:56:34;;;;;;;4.60;2.97;;;18.60;99.70;;;;;;5037743;28;20423;-79
2021/07/14 10:59:00;;;;;;;3.00;2.43;;;18.60;99.90;;;;;;5046018;28;20432;-78
2021/07/14 11:01:42;;;;;;;3.43;3.10;;;18.60;99.90;;;;;;5028676;28;20525;-79
2021/07/14 11:04:21;;;;;;;10.20;5.70;;;18.60;99.90;;;;;;5032051;28;20418;-78
2021/07/14 11:06:55;;;;;;;7.13;5.13;;;18.60;99.90;;;;;;5030743;28;20561;-81
2021/07/14 11:09:31;;;;;;;20.73;17.80;;;18.60;99.90;;;;;;5044686;28;20431;-78
2021/07/14 11:11:57;;;;;;;11.43;7.27;;;18.70;99.90;;;;;;5046945;28;20397;-78
2021/07/14 11:14:34;;;;;;;7.23;5.57;;;18.70;99.90;;;;;;5040240;28;20445;-79
2021/07/14 11:16:59;;;;;;;3.83;2.87;;;18.70;99.90;;;;;;5027391;28;20175;-79
2021/07/14 11:19:45;;;;;;;2.80;2.03;;;18.60;99.80;;;;;;5043733;28;20425;-79
2021/07/14 11:22:11;;;;;;;3.00;2.70;;;18.50;99.70;;;;;;5045821;28;20175;-79
2021/07/14 11:24:45;;;;;;;6.90;2.40;;;18.40;99.90;;;;;;5045148;28;20482;-79
2021/07/14 11:27:23;;;;;;;4.00;2.57;;;18.30;99.90;;;;;;5014404;28;20488;-79
2021/07/14 11:29:50;;;;;;;3.63;2.53;;;18.30;99.90;;;;;;5037746;28;20436;-78
2021/07/14 11:32:34;;;;;;;4.57;3.30;;;18.30;99.90;;;;;;5023513;28;20413;-78
2021/07/14 11:35:00;;;;;;;5.80;3.60;;;18.20;99.90;;;;;;5024754;28;20508;-79
2021/07/14 11:37:34;;;;;;;2.77;2.27;;;18.30;99.90;;;;;;5033569;28;20436;-79
2021/07/14 11:40:18;;;;;;;2.60;1.60;;;18.20;99.90;;;;;;5017165;28;20164;-79
2021/07/14 11:43:03;;;;;;;2.80;1.83;;;18.20;99.90;;;;;;5022446;28;20431;-79
2021/07/14 11:45:32;;;;;;;3.73;2.33;;;18.20;99.90;;;;;;5020941;28;20445;-79
2021/07/14 11:48:04;;;;;;;2.90;2.33;;;18.20;99.90;;;;;;5023355;28;20468;-79
2021/07/14 11:50:42;;;;;;;4.17;1.90;;;18.20;99.90;;;;;;5038520;28;20430;-79
2021/07/14 11:53:37;;;;;;;2.60;2.27;;;18.20;99.90;;;;;;5044464;28;20407;-79
2021/07/14 11:56:25;;;;;;;2.70;1.70;;;18.30;99.90;;;;;;5025015;28;20417;-79
2021/07/14 11:59:12;;;;;;;2.70;2.17;;;18.30;99.90;;;;;;5043851;28;20467;-79
2021/07/14 12:01:38;;;;;;;3.80;2.07;;;18.30;99.90;;;;;;5024987;28;20445;-80
2021/07/14 12:04:07;;;;;;;2.67;1.63;;;18.30;99.90;;;;;;5040293;28;20759;-78
2021/07/14 12:06:45;;;;;;;2.90;1.87;;;18.30;99.90;;;;;;5024868;28;20202;-79
2021/07/14 12:09:13;;;;;;;4.27;1.90;;;18.30;99.90;;;;;;5041967;28;20861;-79
2021/07/14 12:12:00;;;;;;;3.33;2.03;;;18.30;99.90;;;;;;5042129;28;20418;-79
2021/07/14 12:14:28;;;;;;;5.00;3.10;;;18.30;99.90;;;;;;5046010;28;20413;-78
2021/07/14 12:17:04;;;;;;;3.50;2.23;;;18.40;99.90;;;;;;5035477;28;20417;-80
2021/07/14 12:19:31;;;;;;;6.00;2.67;;;18.40;99.90;;;;;;5052560;28;20397;-79
2021/07/14 12:22:19;;;;;;;7.03;2.10;;;18.40;99.90;;;;;;5048949;28;20417;-79
2021/07/14 12:25:09;;;;;;;3.87;2.00;;;18.40;99.90;;;;;;5044316;28;20511;-78
2021/07/14 12:27:39;;;;;;;3.93;2.77;;;18.30;99.90;;;;;;5038625;28;21002;-79
2021/07/14 12:30:20;;;;;;;8.53;4.73;;;18.30;99.90;;;;;;5023037;28;20409;-79
2021/07/14 12:32:47;;;;;;;3.53;2.37;;;18.30;99.90;;;;;;5027242;28;20433;-79
2021/07/14 12:35:35;;;;;;;1.80;1.40;;;18.20;99.90;;;;;;5021596;28;21087;-78
2021/07/14 12:38:06;;;;;;;3.10;1.90;;;18.20;99.90;;;;;;5038786;28;20445;-80
2021/07/14 12:40:39;;;;;;;1.93;1.10;;;18.20;99.90;;;;;;5042956;28;20417;-79
2021/07/14 12:43:09;;;;;;;1.60;1.00;;;18.10;99.90;;;;;;5039577;28;20424;-79
2021/07/14 12:45:37;;;;;;;1.80;1.00;;;18.10;99.90;;;;;;5039938;28;20472;-80
2021/07/14 12:48:04;;;;;;;3.70;2.30;;;18.10;99.90;;;;;;5014644;28;20526;-79
2021/07/14 12:50:32;;;;;;;3.57;1.70;;;18.10;99.90;;;;;;5024054;28;20409;-79
2021/07/14 12:53:00;;;;;;;2.73;1.33;;;18.10;99.90;;;;;;5027420;28;20451;-79
2021/07/14 12:55:27;;;;;;;1.97;1.20;;;18.10;99.90;;;;;;5045919;28;20740;-79
2021/07/14 12:58:00;;;;;;;2.47;1.50;;;18.10;99.90;;;;;;5041932;28;20480;-79
2021/07/14 13:00:27;;;;;;;1.80;1.20;;;18.20;99.90;;;;;;5035070;28;20417;-79
2021/07/14 13:02:58;;;;;;;4.07;1.70;;;18.10;99.90;;;;;;5045805;28;20398;-79
2021/07/14 13:05:50;;;;;;;2.27;1.60;;;18.10;99.90;;;;;;5047524;28;20699;-82
2021/07/14 13:08:24;;;;;;;1.67;1.30;;;18.10;99.90;;;;;;5030162;28;20448;-80
2021/07/14 13:11:04;;;;;;;2.17;1.30;;;18.10;99.90;;;;;;5030727;28;20440;-80